createdAt,value
2023-08-06T00:01:47.933Z,98912.78
2023-08-06T00:06:55.668Z,98908.02
2023-08-06T00:12:03.579Z,98903.35
2023-08-06T00:17:11.858Z,98898.13
2023-08-06T00:22:20.112Z,98904.23
2023-08-06T00:27:27.980Z,98904.94
2023-08-06T00:32:35.707Z,98905.95
2023-08-06T00:37:44.030Z,98899.58
2023-08-06T00:42:52.465Z,98893.79
2023-08-06T00:48:01.306Z,98884.46
2023-08-06T00:53:09.796Z,98884.73
2023-08-06T00:58:18.372Z,98877.30
2023-08-06T01:03:27.601Z,98880.73
2023-08-06T01:08:50.389Z,98869.17
2023-08-06T01:14:02.887Z,98861.02
2023-08-06T01:19:21.699Z,98847.23
2023-08-06T01:24:29.751Z,98826.64
2023-08-06T01:29:42.726Z,98805.80
2023-08-06T01:34:52.060Z,98796.90
2023-08-06T01:40:00.446Z,98793.42
2023-08-06T01:45:10.393Z,98795.77
2023-08-06T01:50:18.957Z,98786.77
2023-08-06T01:55:27.545Z,98788.54
2023-08-06T02:00:35.395Z,98787.82
2023-08-06T02:05:44.584Z,98795.27
2023-08-06T02:10:52.697Z,98802.62
2023-08-06T02:16:00.908Z,98799.27
2023-08-06T02:21:09.040Z,98805.73
2023-08-06T02:26:17.387Z,98816.81
2023-08-06T02:31:25.391Z,98838.65
2023-08-06T02:36:33.258Z,98878.00
2023-08-06T02:41:41.234Z,98873.67
2023-08-06T02:46:49.427Z,98855.08
2023-08-06T02:51:58.431Z,98827.98
2023-08-06T02:57:07.532Z,98802.33
2023-08-06T03:02:16.655Z,98768.41
2023-08-06T03:07:37.787Z,98739.88
2023-08-06T03:12:53.553Z,98706.23
2023-08-06T03:18:03.635Z,98689.09
2023-08-06T03:23:12.316Z,98672.42
2023-08-06T03:28:21.099Z,98677.95
2023-08-06T03:33:30.030Z,98698.29
2023-08-06T03:38:41.180Z,98697.20
2023-08-06T03:43:50.458Z,98683.07
2023-08-06T03:49:04.541Z,98673.02
2023-08-06T03:54:13.029Z,98657.54
2023-08-06T03:59:21.644Z,98645.69
2023-08-06T04:04:30.988Z,98634.20
2023-08-06T04:09:55.108Z,98604.95
2023-08-06T04:15:04.434Z,98600.25
2023-08-06T04:20:14.244Z,98588.16
2023-08-06T04:25:22.742Z,98571.83
2023-08-06T04:30:31.845Z,98560.66
2023-08-06T04:35:41.304Z,98555.77
2023-08-06T04:40:49.933Z,98554.69
2023-08-06T04:46:00.313Z,98561.88
2023-08-06T04:51:08.625Z,98555.52
2023-08-06T04:56:17.058Z,98547.48
2023-08-06T05:01:25.032Z,98543.71
2023-08-06T05:06:33.993Z,98532.09
2023-08-06T05:11:41.876Z,98524.39
2023-08-06T05:16:49.378Z,98511.02
2023-08-06T05:21:57.074Z,98505.13
2023-08-06T05:27:04.862Z,98502.04
2023-08-06T05:32:12.873Z,98493.77
2023-08-06T05:37:20.502Z,98489.48
2023-08-06T05:42:27.964Z,98485.06
2023-08-06T05:47:35.726Z,98480.59
2023-08-06T05:52:43.634Z,98472.94
2023-08-06T05:57:51.172Z,98460.91
2023-08-06T06:02:58.737Z,98450.30
2023-08-06T06:08:06.364Z,98438.64
2023-08-06T06:13:13.709Z,98423.16
2023-08-06T06:18:21.486Z,98419.60
2023-08-06T06:23:28.997Z,98407.50
2023-08-06T06:28:36.844Z,98402.86
2023-08-06T06:33:44.370Z,98394.33
2023-08-06T06:38:51.807Z,98388.14
2023-08-06T06:44:00.530Z,98383.02
2023-08-06T06:49:08.169Z,98376.88
2023-08-06T06:54:15.908Z,98364.69
2023-08-06T06:59:23.202Z,98356.13
2023-08-06T07:04:30.775Z,98342.93
2023-08-06T07:09:38.303Z,98337.30
2023-08-06T07:14:45.703Z,98321.59
2023-08-06T07:19:53.585Z,98309.53
2023-08-06T07:25:01.061Z,98305.12
2023-08-06T07:30:10.188Z,98300.33
2023-08-06T07:35:18.759Z,98304.92
2023-08-06T07:40:26.183Z,98295.41
2023-08-06T07:45:38.649Z,98283.48
2023-08-06T07:50:51.975Z,98274.71
2023-08-06T07:56:00.954Z,98264.13
2023-08-06T08:01:08.829Z,98254.10
2023-08-06T08:12:49.245Z,98236.56
2023-08-06T08:17:55.188Z,98232.77
2023-08-06T08:23:03.154Z,98225.58
2023-08-06T08:28:10.929Z,98218.67
2023-08-06T08:33:18.336Z,98213.93
2023-08-06T08:38:26.071Z,98202.71
2023-08-06T08:43:34.680Z,98199.30
2023-08-06T08:48:42.748Z,98196.71
2023-08-06T08:53:53.450Z,98200.11
2023-08-06T08:59:01.363Z,98191.54
2023-08-06T09:04:10.668Z,98182.42
2023-08-06T09:09:28.566Z,98172.64
2023-08-06T09:14:35.972Z,98164.59
2023-08-06T09:19:49.632Z,98156.25
2023-08-06T09:24:58.801Z,98143.71
2023-08-06T09:30:08.460Z,98137.70
2023-08-06T09:35:20.537Z,98131.09
2023-08-06T09:40:32.701Z,98127.02
2023-08-06T09:45:41.052Z,98120.90
2023-08-06T09:50:50.387Z,98107.14
2023-08-06T09:55:59.189Z,98095.50
2023-08-06T10:01:07.374Z,98086.81
2023-08-06T10:06:15.040Z,98079.83
2023-08-06T10:11:24.756Z,98073.84
2023-08-06T10:16:33.903Z,98067.17
2023-08-06T10:21:43.251Z,98064.14
2023-08-06T10:26:50.725Z,98069.94
2023-08-06T10:32:04.112Z,98061.60
2023-08-06T10:37:14.758Z,98059.51
2023-08-06T10:42:24.623Z,98049.42
2023-08-06T10:47:43.809Z,98054.79
2023-08-06T10:52:52.663Z,98048.04
2023-08-06T10:58:00.861Z,98049.41
2023-08-06T11:03:08.959Z,98041.06
2023-08-06T11:08:26.034Z,98039.43
2023-08-06T11:13:34.562Z,98030.16
2023-08-06T11:18:42.791Z,98022.88
2023-08-06T11:23:50.538Z,98013.55
2023-08-06T11:28:58.001Z,98002.64
2023-08-06T11:34:05.494Z,98002.85
2023-08-06T11:39:14.094Z,98002.04
2023-08-06T11:44:26.897Z,97996.06
2023-08-06T11:49:51.024Z,97994.13
2023-08-06T11:55:09.764Z,97988.39
2023-08-06T12:00:21.227Z,97982.73
2023-08-06T12:05:32.777Z,97973.50
2023-08-06T12:10:40.787Z,97966.69
2023-08-06T12:15:49.832Z,97956.67
2023-08-06T12:20:58.139Z,97960.13
2023-08-06T12:26:05.691Z,97957.25
2023-08-06T12:31:13.106Z,97958.26
2023-08-06T12:36:20.546Z,97952.23
2023-08-06T12:41:28.096Z,97940.30
2023-08-06T12:46:36.201Z,97934.67
2023-08-06T12:51:43.661Z,97924.92
2023-08-06T12:56:52.028Z,97916.36
2023-08-06T13:01:59.412Z,97909.66
2023-08-06T13:07:07.995Z,97913.11
2023-08-06T13:12:15.394Z,97910.77
2023-08-06T13:17:22.945Z,97902.70
2023-08-06T13:22:30.866Z,97894.83
2023-08-06T13:27:38.623Z,97886.90
2023-08-06T13:32:46.690Z,97870.10
2023-08-06T13:37:55.823Z,97868.23
2023-08-06T13:43:03.719Z,97869.99
2023-08-06T13:48:11.992Z,97852.79
2023-08-06T13:53:19.540Z,97839.77
2023-08-06T13:58:27.627Z,97825.02
2023-08-06T14:03:35.295Z,97819.56
2023-08-06T14:08:42.957Z,97820.40
2023-08-06T14:13:50.471Z,97821.79
2023-08-06T14:18:58.105Z,97820.19
2023-08-06T14:24:06.145Z,97820.19
2023-08-06T14:29:15.206Z,97817.26
2023-08-06T14:34:22.585Z,97815.45
2023-08-06T14:39:30.203Z,97807.34
2023-08-06T14:44:37.607Z,97789.11
2023-08-06T14:49:46.313Z,97780.73
2023-08-06T14:54:57.035Z,97787.61
2023-08-06T15:00:04.736Z,97794.43
2023-08-06T15:05:12.832Z,97790.04
2023-08-06T15:10:27.406Z,97794.73
2023-08-06T15:15:35.744Z,97801.91
2023-08-06T15:20:43.444Z,97804.44
2023-08-06T15:25:51.181Z,97816.40
2023-08-06T15:31:26.502Z,97814.87
2023-08-06T16:10:59.868Z,97834.21
2023-08-06T16:16:08.344Z,97867.31
2023-08-06T16:41:34.013Z,97845.70
2023-08-06T16:46:41.931Z,97809.48
2023-08-06T16:51:49.500Z,97820.08
2023-08-06T16:56:58.126Z,97825.95
2023-08-06T17:02:06.618Z,97823.61
2023-08-06T17:07:14.189Z,97825.73
2023-08-06T17:12:22.550Z,97837.06
2023-08-06T17:17:29.997Z,97870.91
2023-08-06T17:22:38.537Z,97888.22
2023-08-06T17:27:46.043Z,97894.92
2023-08-06T17:32:53.726Z,97893.59
2023-08-06T17:38:01.250Z,97865.11
2023-08-06T17:43:09.407Z,97887.10
2023-08-06T17:48:17.686Z,97898.10
2023-08-06T17:53:26.019Z,97910.66
2023-08-06T17:58:33.597Z,97908.52
2023-08-06T18:03:41.087Z,97909.15
2023-08-06T18:08:48.696Z,97903.95
2023-08-06T18:13:56.192Z,97896.45
2023-08-06T18:19:03.568Z,97884.73
2023-08-06T18:24:10.915Z,97891.46
2023-08-06T18:29:18.273Z,97883.70
2023-08-06T18:34:25.716Z,97880.67
2023-08-06T18:39:33.253Z,97885.43
2023-08-06T18:44:40.934Z,97891.29
2023-08-06T18:49:48.321Z,97893.52
2023-08-06T18:54:57.355Z,97885.11
2023-08-06T19:00:06.144Z,97879.73
2023-08-06T19:05:14.568Z,97877.73
2023-08-06T19:10:25.444Z,97877.08
2023-08-06T19:15:32.855Z,97880.94
2023-08-06T19:20:43.781Z,97886.17
2023-08-06T19:25:51.272Z,97889.02
2023-08-06T19:31:01.149Z,97886.13
2023-08-06T19:36:09.046Z,97885.46
2023-08-06T19:41:16.667Z,97873.41
2023-08-06T19:46:24.627Z,97861.52
2023-08-06T19:51:32.107Z,97869.14
2023-08-06T19:56:39.667Z,97883.27
2023-08-06T20:01:50.190Z,97886.98
2023-08-06T20:06:58.590Z,97885.34
2023-08-06T20:12:06.316Z,97878.71
2023-08-06T20:17:13.847Z,97872.90
2023-08-06T20:22:21.812Z,97884.39
2023-08-06T20:27:29.487Z,97898.77
2023-08-06T20:32:36.946Z,97901.92
2023-08-06T20:37:44.863Z,97914.94
2023-08-06T20:42:52.476Z,97912.99
2023-08-06T20:48:00.740Z,97893.86
2023-08-06T20:53:08.648Z,97894.73
2023-08-06T20:58:16.175Z,97901.75
2023-08-06T21:03:23.602Z,97915.86
2023-08-06T21:08:31.480Z,97909.55
2023-08-06T21:13:39.068Z,97902.42
2023-08-06T21:18:46.613Z,97888.38
2023-08-06T21:23:54.707Z,97884.50
2023-08-06T21:29:02.272Z,97868.91
2023-08-06T21:34:10.040Z,97873.80
2023-08-06T21:39:17.843Z,97902.05
2023-08-06T21:44:25.789Z,97921.09
2023-08-06T21:49:33.562Z,97926.98
2023-08-06T21:54:41.330Z,97927.13
2023-08-06T21:59:49.421Z,97928.02
2023-08-06T22:04:56.634Z,97917.52
2023-08-06T22:10:04.524Z,97917.09
2023-08-06T22:15:13.780Z,97936.17
2023-08-06T22:20:22.368Z,97947.50
2023-08-06T22:25:30.914Z,97957.23
2023-08-06T22:30:38.898Z,97944.39
2023-08-06T22:35:46.776Z,97957.46
2023-08-06T22:40:54.162Z,97934.49
2023-08-06T22:46:01.895Z,97950.52
2023-08-06T22:51:09.851Z,97964.40
2023-08-06T22:56:17.509Z,97965.96
2023-08-06T23:01:24.952Z,97966.79
2023-08-06T23:06:32.573Z,97960.88
2023-08-06T23:11:40.084Z,97958.13
2023-08-06T23:16:47.840Z,97970.70
2023-08-06T23:21:55.817Z,97970.20
2023-08-06T23:27:03.997Z,97973.55
2023-08-06T23:32:12.587Z,97976.48
2023-08-06T23:37:20.197Z,97980.27
2023-08-06T23:42:27.962Z,97989.52
2023-08-06T23:47:35.684Z,97985.52
2023-08-06T23:52:43.979Z,97980.98
2023-08-06T23:57:51.802Z,97970.50
